Time;durP1;ratioP1;P1;durP2;ratioP2;P2;SDS_P1;SDS_P2;PMS_P1;PMS_P2;Temp;Humidity;BMP_temperature;BMP_pressure;BME280_temperature;BME280_humidity;BME280_pressure;Samples;Min_cycle;Max_cycle;Signal;HPM_P1;HPM_P2
2023/03/11 00:00:48;;;;;;;3.83;1.75;;;;;;;8.01;68.91;97451.09;30619469;28;96543;-64
2023/03/11 00:15:51;;;;;;;1.60;1.13;;;;;;;7.97;69.16;97447.28;30617501;28;97215;-63
2023/03/11 00:30:52;;;;;;;2.30;0.80;;;;;;;7.96;67.94;97450.94;30616470;28;96581;-64
2023/03/11 00:45:52;;;;;;;1.55;1.00;;;;;;;7.76;67.48;97440.53;30614606;28;97120;-64
2023/03/11 01:00:52;;;;;;;1.02;0.90;;;;;;;7.68;66.81;97446.97;30612913;28;96722;-64
2023/03/11 01:15:53;;;;;;;1.13;0.60;;;;;;;7.57;66.73;97448.50;30612525;28;97665;-64
2023/03/11 01:30:53;;;;;;;2.35;0.90;;;;;;;7.21;67.16;97475.69;30611577;28;97167;-64
2023/03/11 01:45:53;;;;;;;1.13;0.77;;;;;;;6.91;68.95;97465.69;30610662;28;96885;-63
2023/03/11 02:00:55;;;;;;;0.80;0.80;;;;;;;6.75;69.51;97467.84;30609731;28;97459;-63
2023/03/11 02:15:56;;;;;;;1.20;0.90;;;;;;;6.65;70.42;97479.91;30628222;28;96768;-64
2023/03/11 02:30:57;;;;;;;1.50;1.00;;;;;;;6.37;70.38;97481.84;30628057;28;97283;-63
2023/03/11 02:45:57;;;;;;;1.67;1.30;;;;;;;6.36;71.22;97468.84;30625804;28;97425;-63
2023/03/11 03:00:57;;;;;;;0.98;0.80;;;;;;;6.28;71.51;97477.00;30624635;28;96661;-63
2023/03/11 03:15:58;;;;;;;0.55;0.32;;;;;;;5.97;69.83;97558.56;30622713;28;97516;-63
2023/03/11 03:31:06;;;;;;;0.45;0.45;;;;;;;4.71;67.83;97558.19;30622434;28;97281;-63
2023/03/11 03:46:06;;;;;;;0.38;0.38;;;;;;;4.14;66.99;97572.53;30620584;28;96774;-63
2023/03/11 04:01:08;;;;;;;1.17;0.50;;;;;;;3.54;66.68;97604.47;30618632;28;97310;-63
2023/03/11 04:16:14;;;;;;;0.35;0.30;;;;;;;3.15;66.64;97642.56;30616964;28;96576;-63
2023/03/11 04:31:15;;;;;;;0.30;0.30;;;;;;;2.81;66.22;97636.09;30615591;28;97578;-63
2023/03/11 04:46:15;;;;;;;0.30;0.30;;;;;;;2.46;66.46;97660.31;30611864;28;96681;-63
2023/03/11 05:01:15;;;;;;;0.65;0.52;;;;;;;2.14;66.97;97683.25;30610583;28;96640;-62
2023/03/11 05:16:16;;;;;;;0.50;0.50;;;;;;;1.74;68.42;97702.78;30609951;28;97348;-62
2023/03/11 05:31:16;;;;;;;0.68;0.65;;;;;;;1.42;69.51;97718.56;30610278;28;96956;-61
2023/03/11 05:46:17;;;;;;;1.10;0.77;;;;;;;1.30;70.91;97749.59;30622412;28;96881;-62
2023/03/11 06:01:19;;;;;;;0.38;0.38;;;;;;;1.21;71.46;97765.56;30629128;28;96511;-65
2023/03/11 06:16:20;;;;;;;2.13;1.42;;;;;;;0.96;72.57;97771.69;30625678;28;97411;-63
2023/03/11 06:31:24;;;;;;;2.25;1.38;;;;;;;0.85;73.71;97829.72;30625366;28;96946;-63
2023/03/11 06:46:24;;;;;;;1.55;1.27;;;;;;;0.83;74.63;97865.75;30623431;28;96692;-63
2023/03/11 07:01:26;;;;;;;2.30;1.65;;;;;;;0.88;74.62;97905.41;30622174;28;97067;-62
2023/03/11 07:16:28;;;;;;;2.35;1.95;;;;;;;1.01;75.37;97950.31;30621771;28;97187;-62
2023/03/11 07:31:31;;;;;;;2.65;1.63;;;;;;;1.17;75.29;97974.88;30620918;28;96670;-63
2023/03/11 07:46:32;;;;;;;2.45;1.20;;;;;;;1.26;75.17;98023.72;30618427;28;97524;-63
2023/03/11 08:01:35;;;;;;;1.60;1.23;;;;;;;1.18;75.49;98069.13;30616428;28;96687;-63
2023/03/11 08:16:37;;;;;;;2.22;1.40;;;;;;;1.34;75.47;98118.16;30615010;28;96762;-63
2023/03/11 08:31:38;;;;;;;1.88;1.50;;;;;;;1.47;74.93;98187.72;30614163;28;96672;-62
2023/03/11 08:46:38;;;;;;;4.82;2.50;;;;;;;1.53;74.78;98236.91;30612562;28;96990;-63
2023/03/11 09:01:39;;;;;;;3.33;1.77;;;;;;;1.62;74.34;98279.78;30611431;28;96686;-62
2023/03/11 09:16:40;;;;;;;2.08;1.17;;;;;;;1.54;74.45;98343.53;30608143;28;96691;-62
2023/03/11 09:31:40;;;;;;;3.15;1.45;;;;;;;1.66;74.70;98389.53;30609595;28;96687;-62
2023/03/11 09:47:11;;;;;;;2.60;1.35;;;;;;;2.07;73.59;98436.16;30607963;28;96652;-61
2023/03/11 10:02:20;;;;;;;2.00;1.00;;;;;;;2.54;73.05;98492.63;30606329;28;96576;-63
2023/03/11 10:17:50;;;;;;;3.95;2.00;;;;;;;2.99;71.68;98527.38;30604924;28;96779;-62
2023/03/11 10:33:22;;;;;;;1.80;1.05;;;;;;;3.31;70.69;98552.91;30609399;28;96637;-62
2023/03/11 10:48:24;;;;;;;1.85;0.82;;;;;;;3.82;69.07;98571.16;30622802;28;96703;-62
2023/03/11 11:03:25;;;;;;;3.65;1.85;;;;;;;3.87;68.11;98610.19;30622405;28;97001;-62
2023/03/11 11:18:33;;;;;;;3.17;2.03;;;;;;;6.01;66.15;98640.03;30621143;28;97098;-63
2023/03/11 11:33:49;;;;;;;3.00;2.08;;;;;;;3.99;64.10;98679.16;30620051;28;96705;-62
2023/03/11 11:49:18;;;;;;;3.75;1.90;;;;;;;4.26;64.65;98719.34;30617772;28;96867;-61
2023/03/11 12:04:52;;;;;;;3.42;2.22;;;;;;;4.50;64.21;98723.78;30616866;28;96672;-64
2023/03/11 12:20:13;;;;;;;2.10;1.60;;;;;;;5.13;63.01;98758.28;30615103;28;97015;-61
2023/03/11 12:35:29;;;;;;;2.70;1.67;;;;;;;5.63;60.96;98769.44;30613968;28;96588;-61
2023/03/11 12:50:42;;;;;;;3.28;1.40;;;;;;;7.37;56.20;98781.06;30611105;28;97364;-61
2023/03/11 13:06:09;;;;;;;4.55;1.73;;;;;;;4.76;57.10;98852.84;30612349;28;97214;-61
2023/03/11 13:21:31;;;;;;;2.42;1.90;;;;;;;8.21;52.85;98875.22;30610039;28;97286;-63
2023/03/11 13:36:48;;;;;;;2.63;1.80;;;;;;;6.63;53.36;98916.78;30609880;28;96750;-64
2023/03/11 13:51:49;;;;;;;3.45;1.98;;;;;;;5.71;54.39;98951.72;30606906;28;96788;-63
2023/03/11 14:06:51;;;;;;;3.58;1.85;;;;;;;4.56;53.82;98949.94;30620375;28;96555;-64
2023/03/11 14:21:51;;;;;;;2.95;2.10;;;;;;;3.46;54.88;99023.50;30627720;28;96640;-64
2023/03/11 14:36:55;;;;;;;4.00;1.83;;;;;;;2.95;55.19;99037.22;30625957;28;96723;-62
2023/03/11 14:52:04;;;;;;;2.43;1.57;;;;;;;2.48;55.92;99066.31;30624081;28;96625;-64
2023/03/11 15:07:05;;;;;;;2.85;1.60;;;;;;;2.43;56.61;99079.06;30623281;28;96671;-63
2023/03/11 15:22:33;;;;;;;2.95;1.73;;;;;;;2.56;56.48;99108.47;30618608;28;96863;-62
2023/03/11 15:37:34;;;;;;;3.85;1.80;;;;;;;2.44;56.56;99123.59;30619645;28;96784;-62
2023/03/11 15:52:34;;;;;;;2.78;2.03;;;;;;;2.27;56.05;99153.25;30618217;28;96650;-63
2023/03/11 16:07:34;;;;;;;2.45;1.70;;;;;;;2.11;55.49;99183.59;30616794;28;96632;-62
2023/03/11 16:22:37;;;;;;;6.38;1.50;;;;;;;2.00;55.67;99205.56;30614875;28;96650;-62
2023/03/11 16:37:38;;;;;;;3.92;1.55;;;;;;;1.90;55.64;99240.69;30613999;28;97054;-63
2023/03/11 16:52:39;;;;;;;3.45;1.73;;;;;;;1.74;55.87;99264.88;30610843;28;96727;-64
2023/03/11 17:07:39;;;;;;;3.83;2.00;;;;;;;1.61;55.79;99284.31;30611293;28;96658;-63
2023/03/11 17:22:39;;;;;;;3.75;2.03;;;;;;;1.49;55.73;99317.75;30610955;28;96557;-63
2023/03/11 17:37:40;;;;;;;2.53;1.63;;;;;;;1.41;55.79;99341.22;30616410;28;96740;-62
2023/03/11 17:52:40;;;;;;;2.30;1.83;;;;;;;1.10;56.13;99369.22;30630104;28;97176;-62
2023/03/11 18:07:41;;;;;;;5.43;2.88;;;;;;;0.75;59.17;99394.81;30628552;28;96567;-62
2023/03/11 18:22:43;;;;;;;6.93;2.38;;;;;;;0.96;60.97;99418.41;30626429;28;97260;-62
2023/03/11 18:37:44;;;;;;;6.38;3.15;;;;;;;0.43;62.46;99439.38;30623944;28;96697;-61
2023/03/11 18:52:44;;;;;;;5.32;3.03;;;;;;;-0.10;63.82;99461.84;30623041;28;96680;-61
2023/03/11 19:07:45;;;;;;;6.55;3.88;;;;;;;-0.58;65.33;99480.38;30622659;28;97626;-62
2023/03/11 19:22:45;;;;;;;8.07;5.60;;;;;;;-0.92;66.73;99498.59;30620814;28;98340;-62
2023/03/11 19:37:46;;;;;;;8.15;3.90;;;;;;;-1.13;67.64;99529.75;30618574;28;96659;-63
2023/03/11 19:52:46;;;;;;;8.20;5.03;;;;;;;-1.34;68.35;99539.97;30618415;28;96728;-62
2023/03/11 20:07:47;;;;;;;8.10;4.63;;;;;;;-1.42;69.36;99548.34;30616869;28;96634;-62
2023/03/11 20:22:47;;;;;;;9.45;5.13;;;;;;;-1.54;69.72;99565.75;30615722;28;96735;-62
2023/03/11 20:37:48;;;;;;;8.98;4.22;;;;;;;-1.74;69.73;99580.19;30614279;28;96657;-62
2023/03/11 20:52:50;;;;;;;9.63;5.47;;;;;;;-1.82;70.50;99577.28;30612864;28;115905;-63
2023/03/11 21:07:50;;;;;;;6.63;4.35;;;;;;;-1.93;70.18;99571.03;30610683;28;96538;-62
2023/03/11 21:22:51;;;;;;;10.32;4.85;;;;;;;-2.02;70.71;99571.66;30610799;28;96674;-62
2023/03/11 21:37:52;;;;;;;10.60;4.72;;;;;;;-2.14;70.73;99572.50;30609187;28;96644;-63
2023/03/11 21:52:53;;;;;;;16.42;5.28;;;;;;;-2.22;71.61;99583.44;30609203;28;96772;-62
2023/03/11 22:07:53;;;;;;;9.15;4.15;;;;;;;-2.26;71.71;99581.97;30608495;28;96617;-63
2023/03/11 22:22:54;;;;;;;9.02;5.00;;;;;;;-2.42;71.92;99580.41;30613130;28;97315;-62
2023/03/11 22:37:55;;;;;;;10.68;4.93;;;;;;;-2.42;72.49;99589.97;30626201;28;96644;-62
2023/03/11 22:52:55;;;;;;;9.63;5.38;;;;;;;-2.46;73.07;99599.81;30626008;28;97620;-63
2023/03/11 23:07:56;;;;;;;6.68;4.70;;;;;;;-2.54;72.76;99609.91;30625220;28;97049;-62
2023/03/11 23:22:56;;;;;;;9.25;4.35;;;;;;;-2.62;72.97;99620.00;30623571;28;97563;-62
2023/03/11 23:37:57;;;;;;;10.15;4.78;;;;;;;-2.64;73.59;99634.91;30621327;28;96667;-62
2023/03/11 23:52:57;;;;;;;4.70;3.17;;;;;;;-2.45;73.69;99626.72;30620623;28;97896;-63
